Tiempo atmosférico en la estación meteorológica de Mutriku, Gipuzkoa (150 m.)



Fecha
DESCASC
Temp. máxima en grados centígrados (hora)
DESCASC
Temp. mínima en grados centígrados (hora)
DESCASC
Temp. media en grados centígrados
DESCASC
Racha de viento máxima en m/sg (hora)
DESCASC
Velocidad máxima media en intervalos de 10 minutos(hora)
DESCASC
Precipitaciones diarias en mm
DESCASC
Precipitaciones de 00:00 a 06:00 en mm
DESCASC
Precipitaciones de 06:00 a 12:00 en mm
DESCASC
Precipitaciones de 12:00 a 18:00 en mm
DESCASC
Precipitaciones de 18:00 a 24:00 en mm
DESCASC
17-02-2019 21.3 (15:10) 13.1 (08:10) 17.2 15.56 (06:10) 6.11 (22:50) 0 0 0 0 0
16-02-2019 20.3 (14:50) 11.7 (08:00) 16 15.56 (23:50) 5 (13:40) 0 0 0 0 0
15-02-2019 21.3 (16:10) 13.4 (08:20) 17.3 13.33 (06:30) 5.83 (06:00) 0 0 0 0 0
14-02-2019 19.7 (15:50) 11.9 (00:00) 15.8 9.72 (07:20) 4.72 (11:20) 0 0 0 0 0
13-02-2019 13.5 (14:30) 5.8 (00:00) 9.7 4.17 (23:50) 2.5 (16:30) 0 0 0 0 0
12-02-2019 12.3 (15:40) 6.2 (00:00) 9.3 5 (09:50) 3.06 (17:40) 0 0 0 0 0
11-02-2019 10.5 (14:30) 6.9 (00:00) 8.7 13.89 (03:10) 9.17 (03:10) 6 1.8 2.4 1.8 0
10-02-2019 14.8 (00:00) 8.1 (00:00) 11.5 18.89 (05:10) 11.11 (05:10) 5.6 0 2.8 2.8 0
09-02-2019 17 (16:00) 10.8 (00:00) 13.9 13.89 (23:10) 7.22 (23:59) 0 0 0 0 0
08-02-2019 14.1 (11:40) 8.3 (00:00) 11.2 8.89 (07:00) 5.56 (23:59) 0 0 0 0 0
07-02-2019 11.8 (04:50) 8 (00:00) 9.9 8.06 (12:40) 5 (14:40) 0 0 0 0 0
06-02-2019 14.4 (14:10) 10 (00:00) 12.2 5 (11:20) 3.33 (17:00) 0 0 0 0 0
05-02-2019 13.6 (13:40) 10.1 (00:00) 11.9 10.56 (02:50) 6.67 (02:10) 0.2 0.2 0 0 0
04-02-2019 12.2 (13:50) 3.5 (00:00) 7.8 9.17 (19:10) 5.56 (20:10) 0.2 0 0 0.2 0
03-02-2019 7.3 (01:10) 4.1 (00:00) 5.7 18.33 (01:20) 7.5 (03:00) 16 0 3.6 10.2 2.2
02-02-2019 8.4 (14:30) 4.7 (00:00) 6.5 21.39 (09:40) 13.06 (09:40) 14.2 3.2 2 6.6 2.4
01-02-2019 12 (13:20) 5 (00:00) 8.5 16.39 (09:20) 9.17 (09:20) 2.8 0.2 0 2.6 0
31-01-2019 16.1 (14:50) 7.5 (00:00) 11.8 17.22 (18:30) 10 (18:40) 29 4.8 4.6 5 14.6
30-01-2019 10.3 (15:50) 4.8 (00:00) 7.6 18.61 (00:10) 10.56 (00:10) 13 3.2 6.6 0 3.2
29-01-2019 9.7 (16:10) 6.4 (00:00) 8 25.28 (19:10) 14.17 (19:10) 10.2 2.2 1.6 4.6 1.8
28-01-2019 10.5 (14:20) 6.5 (00:00) 8.5 27.78 (07:30) 13.89 (12:10) 11.4 2.6 4.2 3.6 1
27-01-2019 10.1 (03:30) 6.6 (00:00) 8.4 30.28 (12:40) 13.89 (12:40) 9.4 1.6 4.4 1 2.4
26-01-2019 12.9 (13:40) 8.2 (00:00) 10.5 7.78 (00:20) 5 (21:00) 0 0 0 0 0
25-01-2019 10.8 (14:20) 7.5 (00:00) 9.2 14.17 (08:20) 8.33 (08:20) 4.4 1.2 2.4 0.4 0.4
24-01-2019 8.1 (00:20) 4.8 (00:00) 6.5 12.22 (02:00) 5.28 (02:10) 7.4 1 2.6 1.4 2.4
23-01-2019 11 (07:40) 7.5 (00:00) 9.3 25 (07:40) 15.28 (07:10) 20.4 8.2 3.2 6.8 2.2
22-01-2019 7.8 (10:00) 5.5 (00:00) 6.7 14.17 (11:00) 9.17 (11:00) 17.6 0 1.8 8.6 7.2
21-01-2019 9.1 (16:00) 6.1 (00:00) 7.6 11.11 (03:40) 4.72 (03:40) 0.2 0.2 0 0 0
20-01-2019 10.6 (14:50) 7.1 (00:00) 8.9 10.83 (16:10) 6.11 (10:20) 3.2 0 1 0.6 1.6
19-01-2019 10.8 (14:40) 6.8 (00:00) 8.8 11.67 (11:00) 6.94 (01:20) 0.6 0.6 0 0 0

Gráficas

Temp. máximas Temp. mínimas Temp. medias Precipitaciones Rachas de viento máximas Velocidades máximas media en intervalos de 10 minutos

Datos horarios

Fecha y hora oficial Temperatura (ºC) Velocidad del viento (km/h) Dirección del viento Racha (km/h) Dirección de racha Precipitación (mm) Presión (hPa) Tendencia (hPa) Humedad (%)
2019-02-17 23:00:00 16 21 Sur 46 Sur 0 -- -- 28
2019-02-17 22:00:00 15.9 17 Sur 39 Sur 0 -- -- 26
2019-02-17 21:00:00 16.2 15 Sur 34 Sur 0 -- -- 24
2019-02-17 20:00:00 16.2 7 Sur 30 Sudeste 0 -- -- 23
2019-02-17 19:00:00 16.5 13 Sudeste 29 Sur 0 -- -- 24
2019-02-17 18:00:00 18.2 8 Sur 28 Sudeste 0 -- -- 22
2019-02-17 17:00:00 20.2 10 Sudeste 21 Sudeste 0 -- -- 21
2019-02-17 16:00:00 20.8 11 Sur 28 Sur 0 -- -- 18
2019-02-17 15:00:00 21.2 8 Sudeste 26 Sur 0 -- -- 18
2019-02-17 14:00:00 20.2 10 Sudeste 29 Sur 0 -- -- 18
2019-02-17 13:00:00 19.4 6 Este 39 Sudeste 0 -- -- 21
2019-02-17 12:00:00 18.4 7 Sudeste 24 Sudeste 0 -- -- 23
2019-02-17 11:00:00 17 3 Nordeste 20 Sudeste 0 -- -- 22
2019-02-17 10:00:00 15.6 8 Sudeste 22 Sudoeste 0 -- -- 22
2019-02-17 09:00:00 14.1 13 Sur 31 Sudeste 0 -- -- 20
2019-02-17 08:00:00 13.2 7 Sur 28 Sur 0 -- -- 22
2019-02-17 07:00:00 14.1 17 Sur 56 Sur 0 -- -- 20
2019-02-17 06:00:00 14.2 14 Sudoeste 39 Sudeste 0 -- -- 23
2019-02-17 05:00:00 14.4 12 Sur 31 Sur 0 -- -- 24
2019-02-17 04:00:00 14.5 8 Sudeste 30 Sur 0 -- -- 25
2019-02-17 03:00:00 14.9 10 Sur 36 Sur 0 -- -- 26
2019-02-17 02:00:00 15.2 9 Sur 29 Sur 0 -- -- 25
2019-02-17 01:00:00 15.5 12 Sudoeste 34 Sur 0 -- -- 26
2019-02-17 00:00:00 15.9 11 Sudoeste 56 Sur 0 -- -- 25
2019-02-16 23:00:00 15.7 13 Sur 32 Sudoeste 0 -- -- 28
2019-02-16 22:00:00 15.5 8 Noroeste 26 Sudoeste 0 -- -- 29
2019-02-16 21:00:00 15.6 14 Sur 36 Sudeste 0 -- -- 30
2019-02-16 20:00:00 14.8 8 Sudeste 24 Sur 0 -- -- 37
2019-02-16 19:00:00 15.8 12 Sudeste 26 Sudeste 0 -- -- 35
2019-02-16 18:00:00 17.4 5 Este 30 Sur 0 -- -- 33
2019-02-16 17:00:00 18.6 9 Sudeste 33 Sur 0 -- -- 32
2019-02-16 16:00:00 19.5 13 Sur 28 Sudeste 0 -- -- 27
2019-02-16 15:00:00 20.3 9 Sur 30 Sur 0 -- -- 31
2019-02-16 14:00:00 19.6 17 Sudeste 37 Sudeste 0 -- -- 34
2019-02-16 13:00:00 19.2 9 Sudeste 31 Sur 0 -- -- 36
2019-02-16 12:00:00 17.6 12 Sudeste 26 Sudeste 0 -- -- 41
2019-02-16 11:00:00 16.5 13 Sudeste 31 Sudeste 0 -- -- 40
2019-02-16 10:00:00 15 7 Sur 24 Sudeste 0 -- -- 41
2019-02-16 09:00:00 13.1 9 Sur 22 Sudeste 0 -- -- 44
2019-02-16 08:00:00 11.7 2 Nordeste 8 Norte 0 -- -- 49
2019-02-16 07:00:00 12.6 5 Sur 15 Sudoeste 0 -- -- 45
2019-02-16 06:00:00 12.6 3 Este 18 Sudoeste 0 -- -- 45
2019-02-16 05:00:00 13.2 7 Sudoeste 18 Sudeste 0 -- -- 43
2019-02-16 04:00:00 13.3 5 Sur 12 Sur 0 -- -- 43
2019-02-16 03:00:00 13.2 0 Calma 10 Sur 0 -- -- 43
2019-02-16 02:00:00 14.2 2 Nordeste 17 Sur 0 -- -- 40
2019-02-16 01:00:00 14.7 10 Sudoeste 25 Sudoeste 0 -- -- 39
2019-02-16 00:00:00 14.1 14 Sudoeste 21 Sudoeste 0 -- -- 40
2019-02-15 23:00:00 14.5 13 Sudoeste 19 Sudoeste 0 -- -- 37
2019-02-15 22:00:00 15.1 15 Sudoeste 23 Sudoeste 0 -- -- 33
2019-02-15 21:00:00 15.4 14 Sudoeste 23 Sudoeste 0 -- -- 30
2019-02-15 20:00:00 15.9 14 Sudoeste 22 Sudoeste 0 -- -- 27
2019-02-15 19:00:00 17.5 7 Sur 12 Sur 0 -- -- 30
2019-02-15 18:00:00 19.9 6 Sur 13 Sur 0 -- -- 29
2019-02-15 17:00:00 21 8 Oeste 19 Sur 0 -- -- 34
2019-02-15 16:00:00 21.2 5 Sudoeste 22 Sur 0 -- -- 33
2019-02-15 15:00:00 20.7 10 Sudoeste 23 Sudoeste 0 -- -- 32
2019-02-15 14:00:00 20.2 6 Sur 18 Oeste 0 -- -- 34
2019-02-15 13:00:00 18.8 5 Nordeste 40 Sudoeste 0 -- -- 36
2019-02-15 12:00:00 17.8 8 Sudeste 32 Sudoeste 0 -- -- 34
2019-02-15 11:00:00 16.1 10 Sudoeste 29 Oeste 0 -- -- 36
2019-02-15 10:00:00 15.2 4 Nordeste 25 Sur 0 -- -- 34
2019-02-15 09:00:00 13.8 11 Sudoeste 30 Sudoeste 0 -- -- 35
2019-02-15 08:00:00 13.5 9 Sur 38 Oeste 0 -- -- 35
2019-02-15 07:00:00 13.8 18 Oeste 48 Sudoeste 0 -- -- 37
2019-02-15 06:00:00 13.7 21 Sudoeste 37 Oeste 0 -- -- 38
2019-02-15 05:00:00 14 15 Oeste 34 Sudoeste 0 -- -- 38
2019-02-15 04:00:00 14.3 9 Sudeste 32 Sur 0 -- -- 37
2019-02-15 03:00:00 14.7 8 Este 23 Sudeste 0 -- -- 34
2019-02-15 02:00:00 14.6 7 Sudeste 24 Sur 0 -- -- 35
2019-02-15 01:00:00 14.6 6 Este 25 Este 0 -- -- 34
2019-02-15 00:00:00 14.7 5 Nordeste 21 Sudoeste 0 -- -- 34
2019-02-14 23:00:00 14.8 8 Nordeste 25 Este 0 -- -- 33
2019-02-14 22:00:00 14.7 6 Nordeste 20 Sudeste 0 -- -- 32
2019-02-14 21:00:00 15.5 4 Sur 24 Sudeste 0 -- -- 25
2019-02-14 20:00:00 15.6 5 Sur 17 Sur 0 -- -- 27
2019-02-14 19:00:00 16 5 Sur 19 Sur 0 -- -- 29
2019-02-14 18:00:00 17.8 10 Sur 20 Sudeste 0 -- -- 26
2019-02-14 17:00:00 19.2 6 Sudeste 20 Sudeste 0 -- -- 26
2019-02-14 16:00:00 19.6 8 Sur 20 Sudeste 0 -- -- 27
2019-02-14 15:00:00 19.5 11 Sur 26 Este 0 -- -- 29
2019-02-14 14:00:00 18.9 11 Sudeste 27 Sur 0 -- -- 29
2019-02-14 13:00:00 17.7 10 Sur 30 Sur 0 -- -- 32
2019-02-14 12:00:00 16.7 8 Sudoeste 35 Sur 0 -- -- 38
2019-02-14 11:00:00 15.5 12 Sur 31 Sur 0 -- -- 39
2019-02-14 10:00:00 14.5 8 Sur 30 Sur 0 -- -- 42
2019-02-14 09:00:00 13.4 8 Nordeste 23 Sudeste 0 -- -- 43
2019-02-14 08:00:00 13 7 Este 35 Sudeste 0 -- -- 46
2019-02-14 07:00:00 13.3 5 Sudeste 27 Sur 0 -- -- 46
2019-02-14 06:00:00 12.4 3 Sudoeste 11 Norte 0 -- -- 49
2019-02-14 05:00:00 12.3 3 Noroeste 8 Nordeste 0 -- -- 48
2019-02-14 04:00:00 12.3 4 Nordeste 9 Nordeste 0 -- -- 50
2019-02-14 03:00:00 12.3 4 Norte 16 Sur 0 -- -- 52
2019-02-14 02:00:00 12.4 5 Sur 16 Sudeste 0 -- -- 52
2019-02-14 01:00:00 12.1 2 Oeste 9 Este 0 -- -- 54
2019-02-14 00:00:00 12.8 5 Sur 15 Sudoeste 0 -- -- 54
2019-02-13 23:00:00 11.5 0 Calma 4 Norte 0 -- -- 55
2019-02-13 22:00:00 11.6 0 Calma 6 Sur 0 -- -- 53
2019-02-13 21:00:00 11.2 2 Sudoeste 8 Sudoeste 0 -- -- 58
2019-02-13 20:00:00 10.4 0 Calma 13 Sudeste 0 -- -- 65
2019-02-13 19:00:00 10.4 9 Sudeste 13 Sudeste 0 -- -- 62
2019-02-13 18:00:00 11.8 9 Sudeste 14 Sudeste 0 -- -- 53
2019-02-13 17:00:00 11.9 7 Sudeste 14 Sudeste 0 -- -- 69
2019-02-13 16:00:00 12.7 7 Sudeste 10 Este 0 -- -- 72
2019-02-13 15:00:00 13.4 7 Este 12 Este 0 -- -- 68
2019-02-13 14:00:00 13.2 7 Este 11 Este 0 -- -- 69
2019-02-13 13:00:00 11.9 6 Este 9 Este 0 -- -- 71
2019-02-13 12:00:00 12.4 5 Este 10 Este 0 -- -- 64
2019-02-13 11:00:00 -- 2 Este 6 Este 0 -- -- --
2019-02-13 10:00:00 8.6 0 Calma 10 Sudeste 0 -- -- 77
2019-02-13 09:00:00 6.4 7 Sudeste 9 Este 0 -- -- 85
2019-02-13 08:00:00 6.2 0 Calma 6 Sudeste 0 -- -- 83
2019-02-13 07:00:00 6.3 0 Calma 2 Nordeste 0 -- -- 86
2019-02-13 06:00:00 6.5 0 Calma 3 Sudoeste 0 -- -- 85
2019-02-13 05:00:00 6.4 0 Calma 3 Sudoeste 0 -- -- 87
2019-02-13 04:00:00 6.7 0 Calma 3 Sur 0 -- -- 85
2019-02-13 03:00:00 6.8 0 Calma 4 Nordeste 0 -- -- 85
2019-02-13 02:00:00 7.4 3 Sudoeste 4 Sudoeste 0 -- -- 83
2019-02-13 01:00:00 7.6 4 Sudoeste 6 Sudoeste 0 -- -- 82
2019-02-13 00:00:00 7.3 0 Calma 8 Este 0 -- -- 84
2019-02-12 23:00:00 7.8 5 Este 14 Sudeste 0 -- -- 83
2019-02-12 22:00:00 8.1 4 Este 8 Este 0 -- -- 84
2019-02-12 21:00:00 8.4 2 Sudeste 7 Sur 0 -- -- 83
2019-02-12 20:00:00 8.2 4 Sudeste 11 Este 0 -- -- 83
2019-02-12 19:00:00 8.3 8 Sudeste 16 Sudeste 0 -- -- 83
2019-02-12 18:00:00 10 9 Este 17 Sudeste 0 -- -- 76
2019-02-12 17:00:00 11.3 9 Este 17 Este 0 -- -- 70
2019-02-12 16:00:00 12.2 7 Este 16 Este 0 -- -- 69
2019-02-12 15:00:00 11.6 10 Este 18 Este 0 -- -- 71
2019-02-12 14:00:00 11.1 6 Nordeste 11 Este 0 -- -- 71
2019-02-12 13:00:00 10.9 8 Este 18 Este 0 -- -- 77
2019-02-12 12:00:00 10.7 7 Este 11 Este 0 -- -- 76
2019-02-12 11:00:00 9.6 6 Este 15 Sudeste 0 -- -- 79
2019-02-12 10:00:00 8.9 10 Sudeste 18 Sudeste 0 -- -- 81
2019-02-12 09:00:00 6.7 10 Sudeste 15 Sudeste 0 -- -- 92
2019-02-12 08:00:00 6.4 6 Sudeste 10 Sur 0 -- -- 90
2019-02-12 07:00:00 7.1 2 Sur 7 Sudoeste 0 -- -- 86
2019-02-12 06:00:00 7.3 4 Sudoeste 5 Oeste 0 -- -- 87
2019-02-12 05:00:00 7.8 3 Sudoeste 8 Sudoeste 0 -- -- 86
2019-02-12 04:00:00 7.6 5 Sudoeste 6 Sudoeste 0 -- -- 87
2019-02-12 03:00:00 7.6 3 Sur 6 Sudoeste 0 -- -- 88
2019-02-12 02:00:00 7.7 4 Sur 5 Sur 0 -- -- 89
2019-02-12 01:00:00 7.9 3 Sur 8 Este 0 -- -- 90
2019-02-12 00:00:00 8 5 Oeste 9 Oeste 0 -- -- 88
2019-02-11 23:00:00 7.9 6 Oeste 12 Oeste 0 -- -- 89
2019-02-11 22:00:00 7.3 9 Oeste 12 Oeste 0 -- -- 90
2019-02-11 21:00:00 7.6 8 Sudoeste 15 Oeste 0 -- -- 90
2019-02-11 20:00:00 7.8 8 Oeste 10 Oeste 0 -- -- 89
2019-02-11 19:00:00 8.4 6 Sudoeste 12 Oeste 0 -- -- 87
2019-02-11 18:00:00 9.3 8 Oeste 13 Noroeste 0 -- -- 85
2019-02-11 17:00:00 8.9 8 Oeste 22 Oeste 0 -- -- 87
2019-02-11 16:00:00 8.5 13 Oeste 25 Noroeste 0.8 -- -- 89
2019-02-11 15:00:00 10 10 Oeste 21 Oeste 0 -- -- 83
2019-02-11 14:00:00 9.5 13 Oeste 21 Oeste 0 -- -- 87
2019-02-11 13:00:00 8.6 15 Oeste 27 Oeste 1 -- -- 88
2019-02-11 12:00:00 8.7 10 Oeste 23 Oeste 0.4 -- -- 90
2019-02-11 11:00:00 8.8 13 Oeste 30 Oeste 0 -- -- 87
2019-02-11 10:00:00 8.2 22 Oeste 32 Oeste 0 -- -- 88
2019-02-11 09:00:00 7.3 16 Oeste 33 Sudoeste 1 -- -- 92
2019-02-11 08:00:00 7.2 17 Oeste 30 Oeste 1 -- -- 91
2019-02-11 07:00:00 7.4 17 Oeste 29 Sudoeste 0 -- -- 87
2019-02-11 06:00:00 6.9 15 Oeste 30 Oeste 1.2 -- -- 90
2019-02-11 05:00:00 7.8 13 Oeste 31 Oeste 0.6 -- -- 85
2019-02-11 04:00:00 8.1 27 Oeste 50 Oeste 0 -- -- 82
2019-02-11 03:00:00 8.5 25 Noroeste 44 Oeste 0 -- -- 79
2019-02-11 02:00:00 8.2 19 Oeste 32 Oeste 0 -- -- 82
2019-02-11 01:00:00 8.5 22 Oeste 35 Oeste 0 -- -- 80
2019-02-11 00:00:00 8.3 17 Oeste 25 Sudoeste 0 -- -- 82
2019-02-10 23:00:00 8.2 16 Oeste 29 Oeste 0 -- -- 82
2019-02-10 22:00:00 8.6 18 Oeste 30 Oeste 0 -- -- 80
2019-02-10 21:00:00 9 15 Oeste 28 Oeste 0 -- -- 76
2019-02-10 20:00:00 9.1 15 Oeste 25 Oeste 0 -- -- 78
2019-02-10 19:00:00 8.9 13 Oeste 25 Noroeste 0 -- -- 81
2019-02-10 18:00:00 9.3 13 Oeste 28 Oeste 0 -- -- 82
2019-02-10 17:00:00 9 20 Oeste 45 Oeste 0.4 -- -- 86
2019-02-10 16:00:00 9.2 18 Oeste 56 Oeste 0 -- -- 85
2019-02-10 15:00:00 9.1 31 Oeste 48 Oeste 0.8 -- -- 88
2019-02-10 14:00:00 9.7 19 Oeste 39 Oeste 0.8 -- -- 88
2019-02-10 13:00:00 9.4 11 Oeste 27 Oeste 0.8 -- -- 93
2019-02-10 12:00:00 9.3 15 Oeste 38 Oeste 0.4 -- -- 91
2019-02-10 11:00:00 9.5 28 Noroeste 61 Noroeste 2.4 -- -- 93
2019-02-10 10:00:00 14.1 23 Oeste 49 Oeste 0 -- -- 62
2019-02-10 09:00:00 13.4 27 Sudoeste 55 Oeste 0 -- -- 62
2019-02-10 08:00:00 13.4 24 Sudoeste 57 Sudoeste 0 -- -- 62
2019-02-10 07:00:00 13.5 26 Sudoeste 48 Sudoeste 0 -- -- 58
2019-02-10 06:00:00 13.8 32 Sudoeste 68 Oeste 0 -- -- 54
2019-02-10 05:00:00 13.4 39 Sudoeste 66 Sudoeste 0 -- -- 54
2019-02-10 04:00:00 13.3 33 Sudoeste 59 Sudoeste 0 -- -- 53
2019-02-10 03:00:00 13.8 39 Sudoeste 62 Oeste 0 -- -- 50
2019-02-10 02:00:00 14.1 35 Sudoeste 64 Sudoeste 0 -- -- 49
2019-02-10 01:00:00 14.5 35 Sudoeste 62 Sudoeste 0 -- -- 48
2019-02-10 00:00:00 14.8 26 Sudoeste 50 Oeste 0 -- -- 49
2019-02-09 23:00:00 15.1 22 Oeste 43 Oeste 0 -- -- 48
2019-02-09 22:00:00 15.2 17 Oeste 32 Oeste 0 -- -- 48
2019-02-09 21:00:00 15.2 11 Oeste 41 Sudoeste 0 -- -- 48
2019-02-09 20:00:00 15.5 18 Sudoeste 38 Sudoeste 0 -- -- 46
2019-02-09 19:00:00 14.9 9 Sudoeste 34 Sudoeste 0 -- -- 48
2019-02-09 18:00:00 15 22 Sudoeste 48 Oeste 0 -- -- 50
2019-02-09 17:00:00 15.8 9 Sudoeste 26 Sur 0 -- -- 48
2019-02-09 16:00:00 17 6 Sudoeste 33 Oeste 0 -- -- 48
2019-02-09 15:00:00 16.6 12 Sudoeste 30 Sudoeste 0 -- -- 51
2019-02-09 14:00:00 16.2 10 Sudoeste 27 Sudoeste 0 -- -- 54
2019-02-09 13:00:00 15.1 12 Oeste 31 Sur 0 -- -- 59
2019-02-09 12:00:00 14.2 10 Sudoeste 32 Sudoeste 0 -- -- 59
2019-02-09 11:00:00 12.1 13 Sudoeste 29 Sudoeste 0 -- -- 64
2019-02-09 10:00:00 11.3 13 Sudoeste 30 Sudoeste 0 -- -- 65
2019-02-09 09:00:00 11.2 14 Sudoeste 23 Sudoeste 0 -- -- 65
2019-02-09 08:00:00 10.9 10 Oeste 18 Sudoeste 0 -- -- 65
2019-02-09 07:00:00 11 4 Sudoeste 18 Sudoeste 0 -- -- 64
2019-02-09 06:00:00 11.6 9 Sudoeste 21 Sudoeste 0 -- -- 62
2019-02-09 05:00:00 12.2 8 Sudoeste 21 Oeste 0 -- -- 60
2019-02-09 04:00:00 12.2 8 Oeste 22 Sudoeste 0 -- -- 60
2019-02-09 03:00:00 12.2 7 Sudoeste 20 Sudoeste 0 -- -- 59
2019-02-09 02:00:00 12.5 10 Sudoeste 28 Sudoeste 0 -- -- 58
2019-02-09 01:00:00 12.6 17 Oeste 34 Sudoeste 0 -- -- 57
2019-02-09 00:00:00 12.7 20 Sudoeste 30 Sudoeste 0 -- -- 56
2019-02-08 23:00:00 12.7 12 Sudoeste 19 Sudoeste 0 -- -- 55
2019-02-08 22:00:00 12.8 6 Sudoeste 19 Sudoeste 0 -- -- 56
2019-02-08 21:00:00 13.1 11 Sudoeste 21 Sudoeste 0 -- -- 56
2019-02-08 20:00:00 10 12 Sur 16 Sudoeste 0 -- -- 83
2019-02-08 19:00:00 9.3 10 Sur 15 Sur 0 -- -- 89
2019-02-08 18:00:00 9.8 7 Oeste 14 Noroeste 0 -- -- 89
2019-02-08 17:00:00 11.1 6 Noroeste 13 Noroeste 0 -- -- 86
2019-02-08 16:00:00 11.6 6 Noroeste 18 Noroeste 0 -- -- 86
2019-02-08 15:00:00 11.3 9 Noroeste 18 Oeste 0 -- -- 87
2019-02-08 14:00:00 11.7 5 Noroeste 10 Noroeste 0 -- -- 83
2019-02-08 13:00:00 11.6 5 Noroeste 12 Oeste 0 -- -- 82
2019-02-08 12:00:00 13.3 6 Noroeste 16 Oeste 0 -- -- 66
2019-02-08 11:00:00 13.5 5 Sur 18 Sudoeste 0 -- -- 59
2019-02-08 10:00:00 11.9 8 Sudoeste 21 Oeste 0 -- -- 62
2019-02-08 09:00:00 10.4 10 Sudoeste 22 Oeste 0 -- -- 66
2019-02-08 08:00:00 10.4 12 Oeste 25 Oeste 0 -- -- 65
2019-02-08 07:00:00 10 15 Oeste 32 Sudoeste 0 -- -- 68
2019-02-08 06:00:00 9.7 10 Sudoeste 23 Sudoeste 0 -- -- 69
2019-02-08 05:00:00 9.2 6 Sur 15 Sudoeste 0 -- -- 70
2019-02-08 04:00:00 8.6 8 Sur 14 Sur 0 -- -- 72
2019-02-08 03:00:00 8.6 10 Sur 15 Sur 0 -- -- 70
2019-02-08 02:00:00 8.7 8 Sur 12 Sudoeste 0 -- -- 71
2019-02-08 01:00:00 8.8 7 Sur 11 Sur 0 -- -- 71
2019-02-08 00:00:00 8.3 6 Sudoeste 12 Sur 0 -- -- 75
2019-02-07 23:00:00 8.7 8 Sur 10 Sur 0 -- -- 74
2019-02-07 22:00:00 9.2 3 Sudoeste 8 Sur 0 -- -- 71
2019-02-07 21:00:00 9 6 Sudoeste 9 Sudoeste 0 -- -- 73
2019-02-07 20:00:00 9.1 7 Sudoeste 12 Sudoeste 0 -- -- 75
2019-02-07 19:00:00 9.3 8 Sudoeste 11 Sudoeste 0 -- -- 76
2019-02-07 18:00:00 10.8 3 Sudoeste 11 Oeste 0 -- -- 73
2019-02-07 17:00:00 11.6 4 Oeste 16 Oeste 0 -- -- 71
2019-02-07 16:00:00 11.2 7 Oeste 22 Oeste 0 -- -- 73
2019-02-07 15:00:00 10.4 13 Oeste 27 Oeste 0 -- -- 76
2019-02-07 14:00:00 10.8 10 Noroeste 20 Oeste 0 -- -- 79
2019-02-07 13:00:00 10.6 9 Oeste 29 Noroeste 0 -- -- 85
2019-02-07 12:00:00 11 5 Noroeste 25 Oeste 0 -- -- 88
2019-02-07 11:00:00 11.4 13 Oeste 28 Oeste 0 -- -- 79
2019-02-07 10:00:00 11.2 12 Oeste 24 Oeste 0 -- -- 78
2019-02-07 09:00:00 11.1 13 Oeste 19 Oeste 0 -- -- 77
2019-02-07 08:00:00 11.1 13 Oeste 24 Noroeste 0 -- -- 75
2019-02-07 07:00:00 10.5 10 Oeste 17 Oeste 0 -- -- 76
2019-02-07 06:00:00 11.6 8 Sudoeste 15 Oeste 0 -- -- 69
2019-02-07 05:00:00 11.8 4 Oeste 9 Sudoeste 0 -- -- 68
2019-02-07 04:00:00 11.7 7 Oeste 13 Oeste 0 -- -- 70
2019-02-07 03:00:00 11.3 7 Sudoeste 17 Oeste 0 -- -- 74
2019-02-07 02:00:00 11.2 13 Sudoeste 22 Sudoeste 0 -- -- 76
2019-02-07 01:00:00 10.7 13 Oeste 19 Sudoeste 0 -- -- 78
2019-02-07 00:00:00 10.1 12 Oeste 15 Oeste 0 -- -- 85
2019-02-06 23:00:00 10.2 10 Oeste 17 Oeste 0 -- -- 88
2019-02-06 22:00:00 11.6 5 Oeste 14 Noroeste 0 -- -- 82
2019-02-06 21:00:00 11.5 5 Oeste 13 Noroeste 0 -- -- 87
2019-02-06 20:00:00 11.9 0 Calma 6 Oeste 0 -- -- 86
2019-02-06 19:00:00 11.8 5 Oeste 8 Oeste 0 -- -- 87
2019-02-06 18:00:00 13.1 0 Calma 14 Sudeste 0 -- -- 82
2019-02-06 17:00:00 13.1 12 Sudeste 17 Sudeste 0 -- -- 82
2019-02-06 16:00:00 13.5 9 Sudeste 13 Este 0 -- -- 81
2019-02-06 15:00:00 13.6 9 Sudeste 15 Este 0 -- -- 81
2019-02-06 14:00:00 14.2 9 Este 17 Este 0 -- -- 78
2019-02-06 13:00:00 14.3 12 Este 17 Este 0 -- -- 77
2019-02-06 12:00:00 13.8 8 Este 18 Este 0 -- -- 77
2019-02-06 11:00:00 13.1 9 Sudeste 15 Este 0 -- -- 78
2019-02-06 10:00:00 11.6 10 Sudeste 17 Sudeste 0 -- -- 81
2019-02-06 09:00:00 10.4 7 Sur 11 Sur 0 -- -- 86
2019-02-06 08:00:00 10.5 5 Sudeste 12 Este 0 -- -- 87
2019-02-06 07:00:00 10.1 6 Sudeste 10 Sudeste 0 -- -- 90
2019-02-06 06:00:00 10.5 5 Este 9 Este 0 -- -- 88
2019-02-06 05:00:00 10.5 0 Calma 6 Sudeste 0 -- -- 88
2019-02-06 04:00:00 10.4 2 Sudeste 10 Este 0 -- -- 89
2019-02-06 03:00:00 10.5 0 Calma 10 Sudeste 0 -- -- 87
2019-02-06 02:00:00 10.7 5 Sudeste 9 Sudeste 0 -- -- 87
2019-02-06 01:00:00 10.9 5 Sudeste 8 Sudeste 0 -- -- 85
2019-02-06 00:00:00 11 3 Sudeste 5 Sudeste 0 -- -- 82
2019-02-05 23:00:00 11.2 3 Sur 5 Sur 0 -- -- 81
2019-02-05 22:00:00 11.4 0 Calma 2 Este 0 -- -- 79
2019-02-05 21:00:00 11.3 0 Calma 4 Sudeste 0 -- -- 82
2019-02-05 20:00:00 11.1 0 Calma 11 Sudeste 0 -- -- 86
2019-02-05 19:00:00 11.4 9 Sudeste 12 Sudeste 0 -- -- 88
2019-02-05 18:00:00 12.1 2 Noroeste 12 Noroeste 0 -- -- 81
2019-02-05 17:00:00 12.7 0 Calma 7 Sur 0 -- -- 84
2019-02-05 16:00:00 12.2 5 Sudeste 8 Sudeste 0 -- -- 86
2019-02-05 15:00:00 12.3 4 Sudeste 10 Nordeste 0 -- -- 87
2019-02-05 14:00:00 13.2 4 Nordeste 10 Nordeste 0 -- -- 78
2019-02-05 13:00:00 12.9 0 Calma 14 Oeste 0 -- -- 80
2019-02-05 12:00:00 13 9 Oeste 28 Oeste 0 -- -- 73
2019-02-05 11:00:00 12.8 14 Oeste 28 Oeste 0 -- -- 73
2019-02-05 10:00:00 12.3 12 Oeste 26 Oeste 0 -- -- 76
2019-02-05 09:00:00 12.2 21 Oeste 36 Oeste 0 -- -- 76
2019-02-05 08:00:00 11.7 21 Oeste 33 Oeste 0 -- -- 78
2019-02-05 07:00:00 11.7 20 Oeste 32 Sudoeste 0 -- -- 77
2019-02-05 06:00:00 11.9 17 Oeste 33 Oeste 0 -- -- 76
2019-02-05 05:00:00 11.6 17 Oeste 31 Sudoeste 0 -- -- 78
2019-02-05 04:00:00 11.5 18 Oeste 32 Oeste 0 -- -- 80
2019-02-05 03:00:00 11.2 20 Oeste 38 Oeste 0 -- -- 83
2019-02-05 02:00:00 10.8 21 Oeste 38 Sudoeste 0.2 -- -- 87
2019-02-05 01:00:00 10.6 22 Oeste 32 Oeste 0 -- -- 86
2019-02-05 00:00:00 10.1 17 Oeste 28 Oeste 0 -- -- 86
2019-02-04 23:00:00 10 11 Oeste 20 Oeste 0 -- -- 87
2019-02-04 22:00:00 10.4 12 Oeste 31 Oeste 0 -- -- 81
2019-02-04 21:00:00 11.1 20 Oeste 33 Oeste 0 -- -- 74
2019-02-04 20:00:00 10.1 16 Oeste 33 Oeste 0 -- -- 79
2019-02-04 19:00:00 10.1 20 Oeste 30 Oeste 0 -- -- 75
2019-02-04 18:00:00 9.8 3 Sudoeste 11 Noroeste 0.2 -- -- 76
2019-02-04 17:00:00 10.4 8 Sudoeste 13 Oeste 0 -- -- 69
2019-02-04 16:00:00 11.1 9 Oeste 22 Oeste 0 -- -- 57
2019-02-04 15:00:00 12.1 11 Oeste 16 Oeste 0 -- -- 43
2019-02-04 14:00:00 12.2 6 Oeste 18 Oeste 0 -- -- 54
2019-02-04 13:00:00 10.4 2 Oeste 12 Sur 0 -- -- 69
2019-02-04 12:00:00 9.3 2 Noroeste 6 Sudoeste 0 -- -- 68
2019-02-04 11:00:00 8.1 0 Calma 7 Este 0 -- -- 75
2019-02-04 10:00:00 6.5 4 Sudoeste 21 Sudoeste 0 -- -- 65
2019-02-04 09:00:00 5.1 6 Sudoeste 17 Sur 0 -- -- 72
2019-02-04 08:00:00 4.8 7 Sudoeste 16 Sudoeste 0 -- -- 74
2019-02-04 07:00:00 4.5 10 Sur 19 Sur 0 -- -- 79
2019-02-04 06:00:00 4.4 13 Sur 21 Sudoeste 0 -- -- 82
2019-02-04 05:00:00 3.5 13 Sudoeste 22 Sudoeste 0 -- -- 89
2019-02-04 04:00:00 4.2 10 Sudoeste 15 Sudoeste 0 -- -- 87
2019-02-04 03:00:00 4.6 9 Sur 19 Sudoeste 0 -- -- 86
2019-02-04 02:00:00 4.7 9 Sudoeste 14 Sudoeste 0 -- -- 88
2019-02-04 01:00:00 4.6 8 Sudoeste 15 Sudoeste 0 -- -- 91
2019-02-04 00:00:00 5.1 5 Sur 18 Oeste 0.4 -- -- 90
2019-02-03 23:00:00 4.7 13 Sudoeste 21 Sudoeste 0 -- -- 92
2019-02-03 22:00:00 4.9 9 Sudoeste 18 Sudoeste 0 -- -- 91
2019-02-03 21:00:00 4.7 8 Sudoeste 14 Sudoeste 0 -- -- 93
2019-02-03 20:00:00 4.9 6 Sudoeste 10 Sur 0.6 -- -- 93
2019-02-03 19:00:00 5.1 4 Sudoeste 18 Sudoeste 1.2 -- -- 90
2019-02-03 18:00:00 6.2 6 Sudoeste 17 Sudoeste 0 -- -- 89
2019-02-03 17:00:00 5.6 7 Sudoeste 13 Sudoeste 0.8 -- -- 93
2019-02-03 16:00:00 5.6 5 Sudoeste 12 Nordeste 0.4 -- -- 90
2019-02-03 15:00:00 5.8 6 Este 21 Nordeste 3.2 -- -- 90
2019-02-03 14:00:00 6.5 5 Sudoeste 17 Nordeste 1 -- -- 89
2019-02-03 13:00:00 4.9 15 Norte 36 Norte 4.8 -- -- 88
2019-02-03 12:00:00 6.8 9 Noroeste 33 Noroeste 0 -- -- 79
2019-02-03 11:00:00 4.8 22 Noroeste 42 Noroeste 1.6 -- -- 86
2019-02-03 10:00:00 4.7 13 Noroeste 53 Noroeste 1.6 -- -- 82
2019-02-03 09:00:00 6 6 Noroeste 38 Norte 0 -- -- 77
2019-02-03 08:00:00 6.9 21 Noroeste 50 Nordeste 0 -- -- 75
2019-02-03 07:00:00 4.7 10 Noroeste 33 Noroeste 0.4 -- -- 80
2019-02-03 06:00:00 5.7 9 Noroeste 31 Norte 0 -- -- 74
2019-02-03 05:00:00 6.1 12 Noroeste 49 Noroeste 0 -- -- 71
2019-02-03 04:00:00 7.1 16 Norte 51 Norte 0 -- -- 64
2019-02-03 03:00:00 7.3 27 Noroeste 50 Noroeste 0 -- -- 65
2019-02-03 02:00:00 5.7 12 Sudeste 66 Norte 0 -- -- 72
2019-02-03 01:00:00 7.1 13 Noroeste 34 Norte 0 -- -- 63
2019-02-03 00:00:00 6.1 9 Noroeste 46 Oeste 0 -- -- 74
2019-02-02 23:00:00 6.9 10 Sudoeste 62 Norte 0.8 -- -- 73
2019-02-02 22:00:00 6.4 23 Noroeste 42 Norte 0 -- -- 75
2019-02-02 21:00:00 5 19 Oeste 54 Norte 1.2 -- -- 83
2019-02-02 20:00:00 6.4 17 Noroeste 42 Oeste 0 -- -- 77
2019-02-02 19:00:00 5.5 26 Noroeste 56 Noroeste 0.4 -- -- 79
2019-02-02 18:00:00 6.7 19 Noroeste 47 Norte 1 -- -- 80
2019-02-02 17:00:00 7.4 19 Noroeste 47 Norte 2.6 -- -- 74
2019-02-02 16:00:00 5.1 16 Norte 58 Noroeste 3 -- -- 86
2019-02-02 15:00:00 8.1 18 Noroeste 44 Noroeste 0 -- -- 61
2019-02-02 14:00:00 8.2 22 Noroeste 51 Noroeste 0 -- -- 63
2019-02-02 13:00:00 8 20 Noroeste 61 Noroeste 0 -- -- 64
2019-02-02 12:00:00 6.9 30 Noroeste 62 Noroeste 0 -- -- 69
2019-02-02 11:00:00 6.3 22 Noroeste 57 Noroeste 0.4 -- -- 82
2019-02-02 10:00:00 4.7 46 Noroeste 77 Noroeste 0.6 -- -- 90
2019-02-02 09:00:00 7.4 31 Noroeste 62 Noroeste 0 -- -- 79
2019-02-02 08:00:00 6.9 34 Noroeste 69 Noroeste 0.8 -- -- 85
2019-02-02 07:00:00 7.7 27 Noroeste 72 Noroeste 0.2 -- -- 85
2019-02-02 06:00:00 7.3 37 Noroeste 63 Noroeste 0.8 -- -- 86
2019-02-02 05:00:00 6.5 32 Noroeste 60 Noroeste 0.8 -- -- 92
2019-02-02 04:00:00 5.9 29 Oeste 51 Sudoeste 1.2 -- -- 90
2019-02-02 03:00:00 6.2 37 Oeste 55 Oeste 0.4 -- -- 88
2019-02-02 02:00:00 6.5 32 Oeste 57 Sudoeste 0 -- -- 84
2019-02-02 01:00:00 6.7 33 Oeste 49 Sudoeste 0 -- -- 80
2019-02-02 00:00:00 6.1 27 Oeste 51 Sudoeste 0 -- -- 80
2019-02-01 23:00:00 6.7 27 Oeste 41 Sudoeste 0 -- -- 81
2019-02-01 22:00:00 7.3 13 Oeste 26 Oeste 0 -- -- 75
2019-02-01 21:00:00 6.5 8 Oeste 19 Sudoeste 0 -- -- 79
2019-02-01 20:00:00 6.9 13 Sudoeste 28 Oeste 0 -- -- 74
2019-02-01 19:00:00 6.5 19 Sudoeste 40 Sudoeste 0 -- -- 77
2019-02-01 18:00:00 5.2 21 Sudoeste 55 Oeste 1.8 -- -- 88
2019-02-01 17:00:00 7.9 5 Noroeste 26 Sudoeste 0.6 -- -- 83
2019-02-01 16:00:00 8.3 13 Oeste 33 Sudoeste 0.2 -- -- 78
2019-02-01 15:00:00 10.9 13 Oeste 52 Oeste 0 -- -- 60
2019-02-01 14:00:00 11.3 19 Oeste 34 Sudoeste 0 -- -- 58
2019-02-01 13:00:00 11 9 Sudoeste 40 Oeste 0 -- -- 61
2019-02-01 12:00:00 10.8 15 Sudoeste 48 Sudoeste 0 -- -- 59
2019-02-01 11:00:00 11.3 23 Oeste 53 Sudoeste 0 -- -- 56
2019-02-01 10:00:00 10.6 30 Sudoeste 59 Sudoeste -- -- -- 55
2019-02-01 09:00:00 10.2 28 Sudoeste 56 Sudoeste 0 -- -- 60
2019-02-01 08:00:00 9.6 23 Oeste 44 Oeste 0 -- -- 69
2019-02-01 07:00:00 8.2 10 Oeste 17 Sudoeste 0 -- -- 80
2019-02-01 06:00:00 8.6 9 Sudoeste 17 Sudoeste 0 -- -- 89
2019-02-01 05:00:00 8.5 8 Sur 12 Sudeste 0 -- -- 95
2019-02-01 04:00:00 8.6 6 Sur 8 Sur 0.2 -- -- 94
2019-02-01 03:00:00 8.9 2 Este 7 Oeste 0 -- -- 93
2019-02-01 02:00:00 9.1 3 Sur 10 Sudeste 0 -- -- 92
2019-02-01 01:00:00 9.1 5 Sur 13 Sudoeste 0 -- -- 92
2019-02-01 00:00:00 9.3 4 Sur 13 Sudoeste 0 -- -- 92
2019-01-31 23:00:00 9.3 9 Sudoeste 25 Oeste 0.4 -- -- 93
2019-01-31 22:00:00 9.4 19 Oeste 35 Oeste 1.8 -- -- 93
2019-01-31 21:00:00 9.6 22 Oeste 36 Oeste 1.6 -- -- 93
2019-01-31 20:00:00 9.7 21 Oeste 42 Oeste 5 -- -- 95
2019-01-31 19:00:00 9.7 28 Oeste 62 Oeste 5.8 -- -- 96
2019-01-31 18:00:00 11.7 11 Noroeste 24 Noroeste 4.2 -- -- 95
2019-01-31 17:00:00 12 3 Oeste 13 Noroeste 0.8 -- -- 92
2019-01-31 16:00:00 12.7 5 Oeste 9 Norte 0 -- -- 88
2019-01-31 15:00:00 16.1 5 Oeste 39 Oeste 0 -- -- 71
2019-01-31 14:00:00 15.8 21 Sudoeste 39 Sudoeste 0 -- -- 70
2019-01-31 13:00:00 14.2 18 Oeste 35 Sudoeste 0 -- -- 80
2019-01-31 12:00:00 13.1 18 Oeste 38 Sudoeste 0 -- -- 83
2019-01-31 11:00:00 12.8 26 Sudoeste 45 Sudoeste 0 -- -- 82
2019-01-31 10:00:00 12 27 Sudoeste 45 Sudoeste 0 -- -- 84
2019-01-31 09:00:00 11.1 27 Sudoeste 48 Sudoeste 1.4 -- -- 89
2019-01-31 08:00:00 10.5 22 Sudoeste 44 Sudoeste 1.4 -- -- 91
2019-01-31 07:00:00 10.2 26 Sudoeste 42 Sudoeste 1.8 -- -- 91
2019-01-31 06:00:00 10 26 Sudoeste 49 Sudoeste 0.4 -- -- 89
2019-01-31 05:00:00 9.7 28 Sudoeste 45 Sudoeste 0.4 -- -- 86
2019-01-31 04:00:00 9.3 27 Sudoeste 53 Sudoeste 1.2 -- -- 87
2019-01-31 03:00:00 9 30 Sudoeste 49 Sudoeste 0.6 -- -- 84
2019-01-31 02:00:00 8.5 28 Oeste 51 Sudoeste 1.2 -- -- 85
2019-01-31 01:00:00 7.6 23 Sudoeste 40 Sudoeste 1 -- -- 88
2019-01-31 00:00:00 7.5 21 Sudoeste 44 Sudoeste 0.8 -- -- 87
2019-01-30 23:00:00 7.5 20 Sudoeste 42 Sudoeste 2 -- -- 86
2019-01-30 22:00:00 8.4 26 Sudoeste 42 Sudoeste 0.4 -- -- 79
2019-01-30 21:00:00 9.4 17 Sudoeste 32 Sur 0 -- -- 68
2019-01-30 20:00:00 9.4 12 Oeste 19 Sudoeste 0 -- -- 60
2019-01-30 19:00:00 9.1 7 Sudoeste 14 Sudoeste 0 -- -- 59
2019-01-30 18:00:00 9.1 8 Sudoeste 12 Sudoeste 0 -- -- 61
2019-01-30 17:00:00 9.7 3 Sur 13 Sudoeste 0 -- -- 64
2019-01-30 16:00:00 10.2 5 Sudoeste 23 Oeste 0 -- -- 61
2019-01-30 15:00:00 9.6 16 Oeste 33 Oeste 0 -- -- 60
2019-01-30 14:00:00 9.9 19 Oeste 36 Oeste 0 -- -- 62
2019-01-30 13:00:00 9.3 17 Sudoeste 39 Oeste 0 -- -- 71
2019-01-30 12:00:00 8 22 Sudoeste 45 Oeste 0 -- -- 79
2019-01-30 11:00:00 6 26 Oeste 49 Oeste 0 -- -- 88
2019-01-30 10:00:00 5.1 23 Oeste 40 Sudoeste 1.8 -- -- 92
2019-01-30 09:00:00 5.2 30 Oeste 50 Oeste 1.4 -- -- 90
2019-01-30 08:00:00 4.9 23 Oeste 49 Sudoeste 2.8 -- -- 91
2019-01-30 07:00:00 5.4 26 Oeste 44 Oeste 0.6 -- -- 91
2019-01-30 06:00:00 5 28 Oeste 55 Sudoeste 1.2 -- -- 91
2019-01-30 05:00:00 5.7 27 Oeste 50 Oeste 0.4 -- -- 88
2019-01-30 04:00:00 5.8 23 Oeste 40 Oeste 0.4 -- -- 88
2019-01-30 03:00:00 6.5 23 Oeste 43 Oeste 0 -- -- 84
2019-01-30 02:00:00 6.3 28 Oeste 60 Oeste 0.8 -- -- 86
2019-01-30 01:00:00 6.7 37 Oeste 67 Oeste 0.4 -- -- 83
2019-01-30 00:00:00 7.3 32 Noroeste 68 Oeste 0.8 -- -- 76
2019-01-29 23:00:00 6.8 29 Oeste 81 Oeste 0 -- -- 76
2019-01-29 22:00:00 7.7 47 Oeste 68 Oeste 0 -- -- 69
2019-01-29 21:00:00 7.8 37 Oeste 81 Oeste 0.6 -- -- 79
2019-01-29 20:00:00 8 35 Oeste 91 Oeste 0 -- -- 80
2019-01-29 19:00:00 8.1 42 Oeste 89 Oeste 0.4 -- -- 81
2019-01-29 18:00:00 8.1 41 Oeste 91 Oeste 0.4 -- -- 81
2019-01-29 17:00:00 8.7 37 Oeste 80 Oeste 0.2 -- -- 84
2019-01-29 16:00:00 9.6 43 Oeste 65 Noroeste 1.8 -- -- 87
2019-01-29 15:00:00 9.6 40 Oeste 61 Oeste 1.2 -- -- 84
2019-01-29 14:00:00 8.6 31 Sudoeste 47 Sudoeste 1 -- -- 86
2019-01-29 13:00:00 8.9 17 Sudoeste 41 Sudoeste 0 -- -- 78
2019-01-29 12:00:00 8.6 15 Sudoeste 31 Sudoeste 0 -- -- 77
2019-01-29 11:00:00 8.3 22 Sudoeste 37 Sudoeste 0.6 -- -- 82
2019-01-29 10:00:00 7.7 18 Sudoeste 26 Sudoeste 0.8 -- -- 85
2019-01-29 09:00:00 8.1 13 Sudoeste 23 Sudoeste 0.2 -- -- 81
2019-01-29 08:00:00 8.3 16 Sudoeste 30 Oeste 0 -- -- 79
2019-01-29 07:00:00 8.1 18 Oeste 35 Oeste 0 -- -- 84
2019-01-29 06:00:00 7.7 23 Oeste 39 Sudoeste 0 -- -- 89
2019-01-29 05:00:00 7.3 21 Oeste 34 Oeste 1.2 -- -- 92
2019-01-29 04:00:00 7.4 16 Oeste 33 Oeste 0.6 -- -- 89
2019-01-29 03:00:00 7.8 20 Oeste 33 Oeste 0.2 -- -- 85
2019-01-29 02:00:00 7.8 18 Oeste 31 Oeste 0 -- -- 87
2019-01-29 01:00:00 7.8 18 Oeste 31 Oeste 0.2 -- -- 89
2019-01-29 00:00:00 7.9 13 Oeste 42 Oeste 0 -- -- 86
2019-01-28 23:00:00 8 26 Oeste 45 Noroeste 0.2 -- -- 85
2019-01-28 22:00:00 8.1 28 Noroeste 48 Oeste 0.4 -- -- 87
2019-01-28 21:00:00 8.6 14 Oeste 48 Noroeste 0 -- -- 85
2019-01-28 20:00:00 9 26 Oeste 51 Oeste 0 -- -- 80
2019-01-28 19:00:00 8.3 29 Oeste 53 Oeste 0.4 -- -- 87
2019-01-28 18:00:00 8.5 30 Oeste 69 Noroeste 1.6 -- -- 85
2019-01-28 17:00:00 10.2 32 Noroeste 66 Noroeste 0.2 -- -- 78
2019-01-28 16:00:00 9.8 36 Noroeste 82 Noroeste 0 -- -- 77
2019-01-28 15:00:00 10.1 40 Noroeste 71 Noroeste 0.2 -- -- 75
2019-01-28 14:00:00 10.2 34 Noroeste 77 Oeste 0 -- -- 74
2019-01-28 13:00:00 9.4 42 Noroeste 80 Oeste 1.6 -- -- 81
2019-01-28 12:00:00 9.6 37 Noroeste 79 Oeste 2 -- -- 81
2019-01-28 11:00:00 9.5 30 Noroeste 77 Noroeste 0 -- -- 87
2019-01-28 10:00:00 10.1 30 Noroeste 59 Oeste 0.2 -- -- 82
2019-01-28 09:00:00 9.3 35 Noroeste 78 Oeste 0.8 -- -- 92
2019-01-28 08:00:00 9.5 40 Oeste 100 Norte 1 -- -- 86
2019-01-28 07:00:00 9.8 44 Oeste 85 Oeste 0.2 -- -- 86
2019-01-28 06:00:00 9.7 41 Oeste 67 Oeste 0 -- -- 85
2019-01-28 05:00:00 8.4 32 Oeste 58 Oeste 0.6 -- -- 91
2019-01-28 04:00:00 7.4 33 Oeste 51 Oeste 0.6 -- -- 92
2019-01-28 03:00:00 7 28 Oeste 49 Oeste 0.4 -- -- 91
2019-01-28 02:00:00 6.9 26 Oeste 51 Oeste 0.2 -- -- 90
2019-01-28 01:00:00 6.6 26 Oeste 54 Oeste 0.8 -- -- 91
2019-01-28 00:00:00 6.8 32 Oeste 57 Oeste 0.8 -- -- 87
2019-01-27 23:00:00 7.2 29 Oeste 48 Noroeste 0.2 -- -- 86
2019-01-27 22:00:00 7.5 30 Oeste 49 Oeste 1.4 -- -- 86
2019-01-27 21:00:00 8.5 27 Oeste 53 Oeste 0 -- -- 78
2019-01-27 20:00:00 8.7 32 Noroeste 58 Noroeste 0 -- -- 71
2019-01-27 19:00:00 8.8 33 Noroeste 58 Oeste 0 -- -- 70
2019-01-27 18:00:00 8.6 30 Noroeste 69 Noroeste 0 -- -- 73
2019-01-27 17:00:00 8.7 31 Oeste 65 Noroeste 0 -- -- 74
2019-01-27 16:00:00 8.5 36 Noroeste 61 Oeste 0 -- -- 80
2019-01-27 15:00:00 8.4 27 Oeste 70 Oeste 0.2 -- -- 82
2019-01-27 14:00:00 7.4 34 Oeste 75 Oeste 0.2 -- -- 82
2019-01-27 13:00:00 8 36 Oeste 109 Oeste 0.6 -- -- 85
2019-01-27 12:00:00 8.2 33 Oeste 67 Oeste 1.2 -- -- 86
2019-01-27 11:00:00 7.8 31 Oeste 67 Oeste 0.4 -- -- 86
2019-01-27 10:00:00 7.5 30 Oeste 65 Noroeste 1.8 -- -- 91
2019-01-27 09:00:00 8 33 Oeste 75 Oeste 0 -- -- 82
2019-01-27 08:00:00 8 25 Oeste 57 Oeste 0.2 -- -- 81
2019-01-27 07:00:00 8.3 23 Oeste 55 Oeste 0.8 -- -- 85
2019-01-27 06:00:00 8.8 27 Oeste 64 Oeste 0.2 -- -- 86
2019-01-27 05:00:00 8.9 33 Oeste 66 Oeste 1.4 -- -- 91
2019-01-27 04:00:00 9.6 25 Oeste 49 Oeste 0 -- -- 88
2019-01-27 03:00:00 9.9 26 Oeste 45 Sudoeste 0 -- -- 80
2019-01-27 02:00:00 8 0 Calma 32 Oeste 0 -- -- 87
2019-01-27 01:00:00 8.2 7 Sudoeste 27 Oeste 0 -- -- 87
2019-01-27 00:00:00 8.3 17 Oeste 27 Oeste 0 -- -- 88
2019-01-26 23:00:00 8.3 16 Oeste 26 Oeste 0 -- -- 87
2019-01-26 22:00:00 8.3 15 Oeste 24 Oeste 0 -- -- 86
2019-01-26 21:00:00 8.4 18 Oeste 25 Oeste 0 -- -- 87
2019-01-26 20:00:00 8.7 8 Sudoeste 12 Sudoeste 0 -- -- 87
2019-01-26 19:00:00 9.1 8 Oeste 13 Noroeste 0 -- -- 83
2019-01-26 18:00:00 10.4 3 Oeste 5 Oeste 0 -- -- 81
2019-01-26 17:00:00 12.3 4 Este 6 Este 0 -- -- 75
2019-01-26 16:00:00 12.4 3 Nordeste 5 Nordeste 0 -- -- 74
2019-01-26 15:00:00 12.7 4 Nordeste 8 Este 0 -- -- 74
2019-01-26 14:00:00 12.6 3 Nordeste 8 Oeste 0 -- -- 69
2019-01-26 13:00:00 12.4 4 Oeste 11 Oeste 0 -- -- 70
2019-01-26 12:00:00 11.7 3 Sur 11 Oeste 0 -- -- 74
2019-01-26 11:00:00 10.9 8 Sudoeste 15 Sudoeste 0 -- -- 77
2019-01-26 10:00:00 10 13 Sudoeste 19 Sudoeste 0 -- -- 80
2019-01-26 09:00:00 9.4 13 Sudoeste 20 Sudoeste 0 -- -- 85
2019-01-26 08:00:00 9.4 13 Sudoeste 19 Sudoeste 0 -- -- 87
2019-01-26 07:00:00 9.3 13 Sudoeste 23 Oeste 0 -- -- 89
2019-01-26 06:00:00 9.4 14 Sudoeste 21 Sudoeste 0 -- -- 89
2019-01-26 05:00:00 9.4 10 Oeste 19 Sudoeste 0 -- -- 90
2019-01-26 04:00:00 9.5 10 Oeste 18 Oeste 0 -- -- 90
2019-01-26 03:00:00 9.7 12 Oeste 19 Oeste 0 -- -- 89
2019-01-26 02:00:00 9.7 10 Oeste 21 Oeste 0 -- -- 91
2019-01-26 01:00:00 9.6 12 Oeste 28 Oeste 0 -- -- 94
2019-01-26 00:00:00 9.6 13 Oeste 23 Oeste 0 -- -- 95
2019-01-25 23:00:00 9.5 17 Oeste 25 Oeste 0 -- -- 96
2019-01-25 22:00:00 9.4 15 Oeste 30 Oeste 0 -- -- 96
2019-01-25 21:00:00 9.4 18 Oeste 30 Oeste 0 -- -- 96
2019-01-25 20:00:00 9.5 17 Oeste 39 Oeste 0.2 -- -- 96
2019-01-25 19:00:00 9.7 20 Noroeste 36 Noroeste 0.2 -- -- 94
2019-01-25 18:00:00 10 23 Oeste 44 Oeste 0 -- -- 91
2019-01-25 17:00:00 10.5 22 Noroeste 40 Oeste 0 -- -- 87
2019-01-25 16:00:00 10.3 19 Noroeste 41 Oeste 0 -- -- 91
2019-01-25 15:00:00 10.7 18 Noroeste 44 Noroeste 0 -- -- 89
2019-01-25 14:00:00 10.4 26 Oeste 39 Oeste 0 -- -- 96
2019-01-25 13:00:00 9.7 20 Noroeste 45 Noroeste 0.4 -- -- 97
2019-01-25 12:00:00 10.1 25 Oeste 39 Oeste 0 -- -- 97
2019-01-25 11:00:00 9.8 21 Noroeste 40 Noroeste 1.2 -- -- 97
2019-01-25 10:00:00 9.8 24 Oeste 42 Noroeste 0.2 -- -- 96
2019-01-25 09:00:00 9.2 28 Oeste 51 Noroeste 0 -- -- 98
2019-01-25 08:00:00 9.4 20 Noroeste 41 Noroeste 0.2 -- -- 99
2019-01-25 07:00:00 9.4 19 Noroeste 43 Noroeste 0.8 -- -- 98
2019-01-25 06:00:00 9.9 26 Noroeste 47 Noroeste 0.4 -- -- 96
2019-01-25 05:00:00 10.1 27 Oeste 50 Noroeste 0 -- -- 94
2019-01-25 04:00:00 10 24 Noroeste 40 Noroeste 0.2 -- -- 98
2019-01-25 03:00:00 10.1 23 Noroeste 45 Noroeste 0.4 -- -- 98
2019-01-25 02:00:00 9.6 20 Noroeste 35 Noroeste 0.2 -- -- 99
2019-01-25 01:00:00 8.3 15 Oeste 22 Oeste 0 -- -- 98
2019-01-25 00:00:00 7.5 7 Oeste 10 Oeste 0.2 -- -- 98
2019-01-24 23:00:00 6.9 4 Oeste 9 Oeste 0.2 -- -- 98
2019-01-24 22:00:00 6.5 0 Calma 3 Oeste 0.8 -- -- 98
2019-01-24 21:00:00 6.4 2 Sudeste 5 Este 0.6 -- -- 97
2019-01-24 20:00:00 6.3 0 Calma 6 Sudoeste 0.2 -- -- 97
2019-01-24 19:00:00 6.3 5 Sudoeste 9 Sudoeste 0.4 -- -- 96
2019-01-24 18:00:00 6.5 0 Calma 4 Sudoeste 0.8 -- -- 96
2019-01-24 17:00:00 6.7 0 Calma 6 Sudoeste 0.2 -- -- 95
2019-01-24 16:00:00 6.7 5 Sudoeste 12 Oeste 0 -- -- 95
2019-01-24 15:00:00 6.8 7 Oeste 10 Oeste 0 -- -- 95
2019-01-24 14:00:00 6.4 7 Sudoeste 10 Sudoeste 0.4 -- -- 94
2019-01-24 13:00:00 6.1 4 Sudoeste 7 Sudoeste 0 -- -- 95
2019-01-24 12:00:00 5.7 4 Sudoeste 13 Sur 0 -- -- 96
2019-01-24 11:00:00 5 10 Sudeste 20 Sudeste 0.4 -- -- 96
2019-01-24 10:00:00 4.9 12 Sudeste 24 Este 1 -- -- 96
2019-01-24 09:00:00 5.9 14 Este 32 Nordeste 0.8 -- -- 93
2019-01-24 08:00:00 7.1 10 Este 27 Nordeste 0.2 -- -- 89
2019-01-24 07:00:00 7.5 5 Oeste 29 Noroeste 0.2 -- -- 84
2019-01-24 06:00:00 7.4 10 Norte 29 Norte 0 -- -- 85
2019-01-24 05:00:00 8.1 15 Noroeste 37 Noroeste 0 -- -- 78
2019-01-24 04:00:00 7.8 13 Norte 36 Norte 0 -- -- 83
2019-01-24 03:00:00 7.2 17 Norte 38 Noroeste 0.2 -- -- 90
2019-01-24 02:00:00 7.6 18 Noroeste 44 Norte 0.6 -- -- 85
2019-01-24 01:00:00 8 13 Noroeste 38 Noroeste 0.2 -- -- 84
2019-01-24 00:00:00 7.6 16 Noroeste 50 Noroeste 0.4 -- -- 88
2019-01-23 23:00:00 8.3 15 Noroeste 47 Noroeste 0.4 -- -- 87
2019-01-23 22:00:00 8.4 19 Noroeste 52 Noroeste 0 -- -- 86
2019-01-23 21:00:00 8.5 20 Noroeste 54 Noroeste 0.6 -- -- 91
2019-01-23 20:00:00 8.2 18 Noroeste 48 Noroeste 0.6 -- -- 91
2019-01-23 19:00:00 9 29 Noroeste 56 Noroeste 0.2 -- -- 87
2019-01-23 18:00:00 8.5 31 Noroeste 57 Noroeste 0.6 -- -- 91
2019-01-23 17:00:00 8.7 30 Oeste 55 Oeste 0 -- -- 89
2019-01-23 16:00:00 8.1 23 Noroeste 50 Oeste 3.2 -- -- 95
2019-01-23 15:00:00 7.8 31 Noroeste 47 Noroeste 0.8 -- -- 93
2019-01-23 14:00:00 8.4 26 Oeste 56 Noroeste 1.6 -- -- 93
2019-01-23 13:00:00 9.2 28 Noroeste 55 Noroeste 0.6 -- -- 94
2019-01-23 12:00:00 8.8 30 Noroeste 60 Noroeste 0.8 -- -- 91
2019-01-23 11:00:00 9.3 27 Noroeste 69 Noroeste 0.4 -- -- 92
2019-01-23 10:00:00 9.3 29 Noroeste 63 Noroeste 0.2 -- -- 93
2019-01-23 09:00:00 9.1 29 Noroeste 74 Oeste 1 -- -- 94
2019-01-23 08:00:00 10.6 43 Noroeste 90 Oeste 0 -- -- 82
2019-01-23 07:00:00 10.4 49 Oeste 80 Noroeste 0.8 -- -- 91
2019-01-23 06:00:00 8.7 34 Oeste 64 Oeste 2.2 -- -- 95
2019-01-23 05:00:00 8.3 36 Oeste 56 Oeste 2.8 -- -- 94
2019-01-23 04:00:00 7.9 20 Oeste 35 Oeste 2.6 -- -- 94
2019-01-23 03:00:00 8.3 23 Oeste 38 Oeste 0.4 -- -- 91
2019-01-23 02:00:00 8.3 24 Oeste 40 Sudoeste 0.2 -- -- 87
2019-01-23 01:00:00 7.9 24 Oeste 40 Oeste 0 -- -- 90
2019-01-23 00:00:00 7.5 24 Oeste 49 Oeste 1 -- -- 92
2019-01-22 23:00:00 6.8 27 Oeste 44 Oeste 0.8 -- -- 93
2019-01-22 22:00:00 6 27 Oeste 49 Oeste 2.2 -- -- 93
2019-01-22 21:00:00 5.5 32 Oeste 49 Oeste 1 -- -- 92
2019-01-22 20:00:00 5.9 26 Oeste 41 Oeste 1.8 -- -- 92
2019-01-22 19:00:00 6.3 18 Oeste 45 Oeste 0.4 -- -- 92
2019-01-22 18:00:00 6.6 27 Oeste 45 Oeste 0.2 -- -- 89
2019-01-22 17:00:00 7.2 23 Oeste 40 Oeste 0 -- -- 85
2019-01-22 16:00:00 7 22 Oeste 41 Oeste 0.4 -- -- 91
2019-01-22 15:00:00 6.5 24 Oeste 40 Oeste 3.2 -- -- 92
2019-01-22 14:00:00 6.8 14 Oeste 47 Oeste 1 -- -- 92
2019-01-22 13:00:00 6.6 30 Oeste 49 Oeste 3.8 -- -- 92
2019-01-22 12:00:00 6.6 27 Oeste 49 Sudoeste 1.4 -- -- 91
2019-01-22 11:00:00 7 33 Oeste 51 Oeste 0.4 -- -- 86
2019-01-22 10:00:00 7.8 28 Oeste 45 Sudoeste 0 -- -- 76
2019-01-22 09:00:00 7.4 24 Oeste 41 Sudoeste 0 -- -- 76
2019-01-22 08:00:00 7.7 22 Oeste 44 Sudoeste 0 -- -- 73
2019-01-22 07:00:00 7.6 22 Oeste 37 Oeste 0 -- -- 74
2019-01-22 06:00:00 7.4 22 Oeste 39 Oeste 0 -- -- 73
2019-01-22 05:00:00 7.1 19 Oeste 29 Oeste 0 -- -- 75
2019-01-22 04:00:00 6.7 19 Oeste 29 Oeste 0 -- -- 78
2019-01-22 03:00:00 6.4 18 Sudoeste 27 Oeste 0 -- -- 79
2019-01-22 02:00:00 6 15 Oeste 26 Oeste 0 -- -- 77
2019-01-22 01:00:00 6.4 12 Oeste 19 Oeste 0 -- -- 74
2019-01-22 00:00:00 6.5 11 Oeste 23 Oeste 0 -- -- 74
2019-01-21 23:00:00 6.7 14 Oeste 25 Oeste 0 -- -- 72
2019-01-21 22:00:00 6.2 14 Oeste 24 Oeste 0 -- -- 75
2019-01-21 21:00:00 6.5 14 Oeste 23 Oeste 0 -- -- 75
2019-01-21 20:00:00 6.6 15 Oeste 22 Oeste 0 -- -- 74
2019-01-21 19:00:00 6.7 14 Oeste 24 Oeste 0 -- -- 73
2019-01-21 18:00:00 7 15 Oeste 22 Oeste 0 -- -- 72
2019-01-21 17:00:00 8.5 10 Noroeste 21 Oeste 0 -- -- 67
2019-01-21 16:00:00 9.1 9 Noroeste 22 Noroeste 0 -- -- 68
2019-01-21 15:00:00 8 9 Noroeste 25 Noroeste 0 -- -- 70
2019-01-21 14:00:00 8.3 7 Noroeste 21 Norte 0 -- -- 69
2019-01-21 13:00:00 8.3 6 Noroeste 24 Noroeste 0 -- -- 70
2019-01-21 12:00:00 8.1 10 Noroeste 30 Oeste 0 -- -- 66
2019-01-21 11:00:00 7.9 11 Noroeste 30 Nordeste 0 -- -- 73
2019-01-21 10:00:00 7.9 7 Noroeste 29 Noroeste 0 -- -- 71
2019-01-21 09:00:00 7.8 6 Noroeste 33 Norte 0 -- -- 72
2019-01-21 08:00:00 8.1 12 Noroeste 30 Norte 0 -- -- 75
2019-01-21 07:00:00 8.1 8 Noroeste 26 Noroeste 0 -- -- 75
2019-01-21 06:00:00 8 8 Noroeste 34 Noroeste 0 -- -- 75
2019-01-21 05:00:00 8.1 7 Sur 30 Norte 0 -- -- 83
2019-01-21 04:00:00 7.6 7 Noroeste 40 Norte 0.2 -- -- 85
2019-01-21 03:00:00 8.4 11 Noroeste 24 Noroeste 0 -- -- 81
2019-01-21 02:00:00 8.8 8 Noroeste 27 Noroeste 0 -- -- 76
2019-01-21 01:00:00 8 7 Noroeste 19 Noroeste 0 -- -- 83
2019-01-21 00:00:00 7.6 7 Oeste 22 Noroeste 1.4 -- -- 91
2019-01-20 23:00:00 8.8 8 Noroeste 24 Noroeste 0 -- -- 81
2019-01-20 22:00:00 8.6 8 Noroeste 31 Norte 0.2 -- -- 81
2019-01-20 21:00:00 9.2 15 Noroeste 30 Noroeste 0 -- -- 80
2019-01-20 20:00:00 9.4 6 Noroeste 23 Norte 0 -- -- 76
2019-01-20 19:00:00 9.6 6 Noroeste 26 Noroeste 0 -- -- 77
2019-01-20 18:00:00 9.6 11 Noroeste 23 Oeste 0 -- -- 83
2019-01-20 17:00:00 9.8 6 Noroeste 39 Noroeste 0 -- -- 80
2019-01-20 16:00:00 9.7 10 Noroeste 27 Noroeste 0 -- -- 83
2019-01-20 15:00:00 10.5 14 Noroeste 30 Noroeste 0 -- -- 79
2019-01-20 14:00:00 9.4 14 Noroeste 27 Noroeste 0 -- -- 86
2019-01-20 13:00:00 8.6 14 Noroeste 32 Noroeste 0.6 -- -- 85
2019-01-20 12:00:00 9.7 18 Noroeste 30 Noroeste 0 -- -- 82
2019-01-20 11:00:00 8.9 18 Oeste 30 Oeste 0 -- -- 87
2019-01-20 10:00:00 7.9 21 Oeste 34 Oeste 0.2 -- -- 88
2019-01-20 09:00:00 7.9 22 Oeste 32 Oeste 0 -- -- 86
2019-01-20 08:00:00 7.8 17 Oeste 36 Oeste 0.4 -- -- 90
2019-01-20 07:00:00 7.9 12 Oeste 24 Oeste 0.4 -- -- 90
2019-01-20 06:00:00 8.2 19 Oeste 31 Oeste 0 -- -- 86
2019-01-20 05:00:00 8.3 14 Oeste 26 Sudoeste 0 -- -- 83
2019-01-20 04:00:00 8.5 16 Sudoeste 24 Sudoeste 0 -- -- 80
2019-01-20 03:00:00 8.4 11 Sudoeste 19 Sudoeste 0 -- -- 76
2019-01-20 02:00:00 8.3 12 Oeste 19 Oeste 0 -- -- 75
2019-01-20 01:00:00 8.2 9 Sudoeste 16 Sudoeste 0 -- -- 76
2019-01-20 00:00:00 8.5 0 Calma 21 Oeste 0 -- -- 74
2019-01-19 23:00:00 8.7 6 Sudoeste 25 Oeste 0 -- -- 73
2019-01-19 22:00:00 9 10 Sudoeste 24 Oeste 0 -- -- 71
2019-01-19 21:00:00 9.2 9 Sudoeste 32 Oeste 0 -- -- 69
2019-01-19 20:00:00 9.3 11 Oeste 32 Sur 0 -- -- 68
2019-01-19 19:00:00 9.1 14 Sudoeste 31 Oeste 0 -- -- 69
2019-01-19 18:00:00 9.4 8 Sur 30 Sudoeste 0 -- -- 68
2019-01-19 17:00:00 9.9 14 Sudoeste 31 Sudoeste 0 -- -- 66
2019-01-19 16:00:00 10.2 13 Sudoeste 38 Oeste 0 -- -- 65
2019-01-19 15:00:00 10.5 12 Sudoeste 32 Sudoeste 0 -- -- 64
2019-01-19 14:00:00 10.4 10 Sudoeste 21 Oeste 0 -- -- 66
2019-01-19 13:00:00 10.1 5 Sudoeste 25 Sudoeste 0 -- -- 68
2019-01-19 12:00:00 9.9 9 Sudoeste 32 Oeste 0 -- -- 68
2019-01-19 11:00:00 8.5 21 Sudoeste 42 Sudoeste 0 -- -- 70
2019-01-19 10:00:00 7.5 18 Sudoeste 34 Sudoeste 0 -- -- 73
2019-01-19 09:00:00 7.1 22 Sudoeste 31 Sudoeste 0 -- -- 74
2019-01-19 08:00:00 7.2 20 Sudoeste 29 Sudoeste 0 -- -- 75
2019-01-19 07:00:00 7.7 20 Sudoeste 31 Sudoeste 0 -- -- 73
2019-01-19 06:00:00 7.9 19 Sudoeste 35 Sudoeste 0 -- -- 75
2019-01-19 05:00:00 7.7 20 Sudoeste 31 Sudoeste 0 -- -- 79
2019-01-19 04:00:00 7.6 17 Sudoeste 31 Sudoeste 0.2 -- -- 85
2019-01-19 03:00:00 8 18 Oeste 36 Sudoeste 0 -- -- 81
2019-01-19 02:00:00 7.7 19 Sudoeste 38 Sudoeste 0 -- -- 85
2019-01-19 01:00:00 7.4 22 Oeste 38 Sudoeste 0.4 -- -- 85
2019-01-19 00:00:00 7 19 Sudoeste 33 Sudoeste 0.8 -- -- 85